AHS9923 VNLK-VNLK
Flight info
| Callsign | AHS9923 |
|---|---|
| Flight time | 0h 27m |
| Altitude | 30000 |
| Route | VFR |
| Aircraft | TBM9/L-SDFGRWY/S |
Departure
| Time | 2025-07-29 14:04 |
|---|---|
| Airport | Tenzing-Hillary Airport (VNLK) |
Arrival
| Time | 2025-07-29 14:31 |
|---|---|
| Airport | Tenzing-Hillary Airport (VNLK) |
| Time | Latitude | Longitude | Altitude | Speed | Heading |
|---|---|---|---|---|---|
| 2025-07-29 13:55 | 27.68743 | 86.73192 | 9361 ft | 0 kts | 240° |
| 2025-07-29 14:00 | 27.68756 | 86.73164 | 9361 ft | 0 kts | 331° |
| 2025-07-29 14:00 | 27.68762 | 86.73161 | 9361 ft | 3 kts | 336° |
| 2025-07-29 14:01 | 27.68777 | 86.73149 | 9360 ft | 1 kts | 253° |
| 2025-07-29 14:02 | 27.68663 | 86.72942 | 9260 ft | 74 kts | 238° |
| 2025-07-29 14:02 | 27.68285 | 86.71203 | 9363 ft | 152 kts | 287° |
| 2025-07-29 14:03 | 27.69955 | 86.70521 | 10378 ft | 136 kts | 22° |
| 2025-07-29 14:03 | 27.71862 | 86.71113 | 11346 ft | 149 kts | 6° |
| 2025-07-29 14:04 | 27.75285 | 86.71118 | 13637 ft | 129 kts | 4° |
| 2025-07-29 14:05 | 27.77088 | 86.72548 | 13860 ft | 192 kts | 30° |
| 2025-07-29 14:05 | 27.78394 | 86.72791 | 14341 ft | 195 kts | 349° |
| 2025-07-29 14:05 | 27.80774 | 86.72510 | 15236 ft | 148 kts | 30° |
| 2025-07-29 14:06 | 27.81601 | 86.73165 | 15729 ft | 148 kts | 38° |
| 2025-07-29 14:06 | 27.84019 | 86.75569 | 17276 ft | 163 kts | 70° |
| 2025-07-29 14:07 | 27.84337 | 86.76815 | 17811 ft | 165 kts | 74° |
| 2025-07-29 14:07 | 27.85647 | 86.78822 | 19110 ft | 152 kts | 46° |
| 2025-07-29 14:08 | 27.87539 | 86.81045 | 21065 ft | 113 kts | 46° |
| 2025-07-29 14:08 | 27.88920 | 86.81925 | 21707 ft | 135 kts | 354° |
| 2025-07-29 14:09 | 27.90535 | 86.81114 | 22705 ft | 128 kts | 315° |
| 2025-07-29 14:09 | 27.92209 | 86.80641 | 23530 ft | 129 kts | 7° |
| 2025-07-29 14:10 | 27.93077 | 86.80850 | 24009 ft | 125 kts | 16° |
| 2025-07-29 14:10 | 27.94658 | 86.81534 | 24844 ft | 122 kts | 22° |
| 2025-07-29 14:12 | 28.00903 | 86.86715 | 27768 ft | 129 kts | 43° |
| 2025-07-29 14:14 | 28.01778 | 86.83512 | 29439 ft | 145 kts | 191° |
| 2025-07-29 14:16 | 27.99464 | 86.92840 | 29843 ft | 156 kts | 69° |
| 2025-07-29 14:18 | 27.96538 | 86.96595 | 29837 ft | 165 kts | 245° |
| 2025-07-29 14:20 | 27.98474 | 86.84965 | 28450 ft | 207 kts | 250° |
| 2025-07-29 14:22 | 27.90546 | 86.80910 | 24724 ft | 230 kts | 150° |
| 2025-07-29 14:22 | 27.87777 | 86.82641 | 23481 ft | 234 kts | 174° |
| 2025-07-29 14:23 | 27.85071 | 86.81044 | 22365 ft | 226 kts | 239° |
| 2025-07-29 14:24 | 27.84029 | 86.76617 | 20730 ft | 215 kts | 256° |
| 2025-07-29 14:24 | 27.82046 | 86.73813 | 19341 ft | 205 kts | 214° |
| 2025-07-29 14:25 | 27.79606 | 86.72228 | 18094 ft | 199 kts | 204° |
| 2025-07-29 14:25 | 27.77073 | 86.72042 | 16845 ft | 174 kts | 175° |
| 2025-07-29 14:25 | 27.75971 | 86.71713 | 16395 ft | 154 kts | 215° |
| 2025-07-29 14:26 | 27.74169 | 86.70798 | 15028 ft | 150 kts | 172° |
| 2025-07-29 14:26 | 27.72147 | 86.71210 | 13550 ft | 148 kts | 172° |
| 2025-07-29 14:27 | 27.70101 | 86.71376 | 12043 ft | 145 kts | 177° |
| 2025-07-29 14:28 | 27.67205 | 86.71958 | 9991 ft | 135 kts | 185° |
| 2025-07-29 14:28 | 27.66141 | 86.70723 | 9429 ft | 114 kts | 265° |
| 2025-07-29 14:29 | 27.66867 | 86.69891 | 9331 ft | 104 kts | 20° |
| 2025-07-29 14:29 | 27.67911 | 86.71210 | 9087 ft | 112 kts | 64° |
| 2025-07-29 14:29 | 27.68193 | 86.71932 | 9006 ft | 92 kts | 68° |
| 2025-07-29 14:30 | 27.68477 | 86.72610 | 8949 ft | 8 kts | 64° |
| 2025-07-29 14:30 | 27.68370 | 86.72489 | 8748 ft | 5 kts | 61° |
| 2025-07-29 14:31 | 27.68162 | 86.71943 | 8510 ft | 93 kts | 236° |
| 2025-07-29 14:32 | 27.66362 | 86.70737 | 9545 ft | 111 kts | 244° |
| 2025-07-29 14:32 | 27.67007 | 86.69400 | 10275 ft | 122 kts | 9° |
| 2025-07-29 14:33 | 27.67865 | 86.71170 | 9531 ft | 141 kts | 71° |
| 2025-07-29 14:33 | 27.68678 | 86.72949 | 9270 ft | 114 kts | 57° |
| 2025-07-29 14:34 | 27.68764 | 86.73240 | 9425 ft | 11 kts | 43° |
| 2025-07-29 14:34 | 27.68758 | 86.73237 | 9401 ft | 0 kts | 112° |
| 2025-07-29 14:34 | 27.68765 | 86.73228 | 9404 ft | 0 kts | 302° |